createdAt,value
2019-04-02T00:00:48.099Z,9.67
2019-04-02T00:03:17.834Z,8.90
2019-04-02T00:05:47.602Z,10.00
2019-04-02T00:08:17.468Z,9.13
2019-04-02T00:10:47.338Z,10.03
2019-04-02T00:13:17.144Z,9.50
2019-04-02T00:15:46.955Z,10.23
2019-04-02T00:18:16.769Z,9.97
2019-04-02T00:20:46.633Z,9.90
2019-04-02T00:23:16.525Z,10.37
2019-04-02T00:25:47.110Z,10.37
2019-04-02T00:28:16.990Z,10.00
2019-04-02T00:30:46.880Z,10.83
2019-04-02T00:33:16.732Z,10.47
2019-04-02T00:35:46.596Z,10.40
2019-04-02T00:38:16.365Z,10.43
2019-04-02T00:40:46.208Z,10.43
2019-04-02T00:43:16.156Z,10.60
2019-04-02T00:45:46.091Z,10.87
2019-04-02T00:48:16.411Z,11.03
2019-04-02T00:50:46.601Z,10.00
2019-04-02T00:53:16.450Z,10.70
2019-04-02T00:55:46.248Z,10.07
2019-04-02T00:58:16.040Z,10.37
2019-04-02T01:00:46.426Z,12.63
2019-04-02T01:03:17.239Z,10.43
2019-04-02T01:05:47.107Z,10.80
2019-04-02T01:08:16.840Z,9.90
2019-04-02T01:10:46.892Z,10.57
2019-04-02T01:13:17.434Z,10.17
2019-04-02T01:15:47.701Z,11.00
2019-04-02T01:18:17.450Z,11.10
2019-04-02T01:20:47.317Z,10.63
2019-04-02T01:23:17.131Z,10.93
2019-04-02T01:25:46.896Z,10.73
2019-04-02T01:28:16.665Z,10.60
2019-04-02T01:30:46.581Z,10.43
2019-04-02T01:33:16.308Z,10.00
2019-04-02T01:35:46.195Z,11.10
2019-04-02T01:38:16.080Z,10.17
2019-04-02T01:40:45.941Z,11.23
2019-04-02T01:43:15.672Z,10.83
2019-04-02T01:45:45.566Z,10.63
2019-04-02T01:48:15.324Z,10.63
2019-04-02T01:50:45.076Z,10.63
2019-04-02T01:53:14.935Z,11.57
2019-04-02T01:55:44.834Z,12.53
2019-04-02T01:58:14.761Z,11.43
2019-04-02T02:00:44.572Z,13.80
2019-04-02T02:03:14.429Z,12.40
2019-04-02T02:05:44.211Z,12.70
2019-04-02T02:08:14.048Z,11.57
2019-04-02T02:10:43.786Z,11.17
2019-04-02T02:13:13.760Z,11.77
2019-04-02T02:15:43.532Z,12.97
2019-04-02T02:18:13.381Z,12.53
2019-04-02T02:20:43.241Z,12.07
2019-04-02T02:23:13.052Z,12.50
2019-04-02T02:25:42.806Z,12.37
2019-04-02T02:28:12.595Z,11.87
2019-04-02T02:30:42.469Z,13.47
2019-04-02T02:33:12.286Z,13.10
2019-04-02T02:35:42.193Z,12.80
2019-04-02T02:38:11.979Z,13.07
2019-04-02T02:41:16.853Z,12.40
2019-04-02T02:43:46.677Z,11.60
2019-04-02T02:46:16.909Z,12.77
2019-04-02T02:48:47.522Z,12.77
2019-04-02T02:51:19.201Z,12.97
2019-04-02T02:53:50.492Z,13.00
2019-04-02T02:56:23.256Z,13.77
2019-04-02T02:58:51.932Z,13.40
2019-04-02T03:01:21.796Z,12.13
2019-04-02T03:03:51.621Z,12.63
2019-04-02T03:06:21.512Z,13.13
2019-04-02T03:08:51.484Z,12.47
2019-04-02T03:11:21.331Z,12.27
2019-04-02T03:13:51.192Z,12.30
2019-04-02T03:16:21.120Z,12.00
2019-04-02T03:18:50.994Z,11.63
2019-04-02T03:21:20.886Z,11.70
2019-04-02T03:23:50.630Z,12.70
2019-04-02T03:26:22.102Z,11.93
2019-04-02T03:28:53.986Z,12.00
2019-04-02T03:31:23.477Z,12.50
2019-04-02T03:33:53.312Z,12.03
2019-04-02T03:36:23.156Z,12.07
2019-04-02T03:38:52.964Z,10.83
2019-04-02T03:41:22.934Z,10.53
2019-04-02T03:43:52.773Z,10.20
2019-04-02T03:46:22.567Z,10.30
2019-04-02T03:48:52.345Z,10.57
2019-04-02T03:51:22.163Z,10.40
2019-04-02T03:53:51.976Z,10.60
2019-04-02T03:56:24.294Z,9.93
2019-04-02T03:58:54.946Z,9.53
2019-04-02T04:01:25.411Z,9.53
2019-04-02T04:03:55.810Z,9.13
2019-04-02T04:06:25.588Z,9.70
2019-04-02T04:08:55.408Z,9.30
2019-04-02T04:11:25.298Z,10.40
2019-04-02T04:13:55.048Z,8.63
2019-04-02T04:16:24.918Z,8.60
2019-04-02T04:18:54.778Z,8.37
2019-04-02T04:21:24.596Z,8.77
2019-04-02T04:23:56.395Z,8.17
2019-04-02T04:26:26.038Z,8.33
2019-04-02T04:28:55.794Z,9.20
2019-04-02T04:31:25.801Z,8.37
2019-04-02T04:33:55.632Z,8.60
2019-04-02T04:36:25.494Z,8.73
2019-04-02T04:38:55.262Z,8.87
2019-04-02T04:41:25.107Z,9.03
2019-04-02T04:43:55.596Z,8.13
2019-04-02T04:46:25.562Z,8.30
2019-04-02T04:48:55.359Z,8.40
2019-04-02T04:51:26.420Z,8.03
2019-04-02T04:53:57.169Z,9.67
2019-04-02T04:56:27.026Z,8.07
2019-04-02T04:58:56.796Z,8.87
2019-04-02T05:01:26.629Z,8.00
2019-04-02T05:04:31.487Z,8.30
2019-04-02T05:07:01.507Z,8.53
2019-04-02T05:09:31.331Z,9.13
2019-04-02T05:12:01.167Z,8.80
2019-04-02T05:14:31.085Z,8.20
2019-04-02T05:17:00.864Z,10.27
2019-04-02T05:19:30.720Z,9.60
2019-04-02T05:22:00.547Z,9.33
2019-04-02T05:24:30.346Z,9.27
2019-04-02T05:27:00.308Z,8.67
2019-04-02T05:29:30.139Z,9.47
2019-04-02T05:32:01.442Z,9.87
2019-04-02T05:34:31.509Z,10.27
2019-04-02T05:37:01.295Z,9.57
2019-04-02T05:39:31.067Z,9.00
2019-04-02T05:42:00.907Z,11.10
2019-04-02T05:44:30.717Z,8.97
2019-04-02T05:47:00.548Z,9.27
2019-04-02T05:49:31.887Z,8.60
2019-04-02T05:52:01.661Z,10.20
2019-04-02T05:54:31.398Z,8.40
2019-04-02T05:57:01.312Z,7.90
2019-04-02T05:59:31.133Z,7.93
2019-04-02T06:02:02.334Z,9.17
2019-04-02T06:04:32.232Z,8.50
2019-04-02T06:07:02.153Z,8.70
2019-04-02T06:09:32.167Z,8.73
2019-04-02T06:12:02.153Z,8.60
2019-04-02T06:14:32.021Z,8.63
2019-04-02T06:17:01.860Z,8.77
2019-04-02T06:19:31.768Z,8.63
2019-04-02T06:22:01.652Z,8.50
2019-04-02T06:24:31.454Z,10.23
2019-04-02T06:27:01.403Z,9.87
2019-04-02T06:29:31.258Z,9.80
2019-04-02T06:32:01.194Z,8.20
2019-04-02T06:34:31.079Z,8.90
2019-04-02T06:37:00.831Z,9.60
2019-04-02T06:39:30.724Z,9.50
2019-04-02T06:42:00.534Z,9.83
2019-04-02T06:44:30.383Z,8.67
2019-04-02T06:47:00.192Z,10.10
2019-04-02T06:49:47.159Z,9.37
2019-04-02T06:52:17.487Z,10.53
2019-04-02T06:54:47.699Z,9.87
2019-04-02T06:57:17.637Z,9.13
2019-04-02T06:59:47.415Z,10.43
2019-04-02T07:02:17.341Z,10.30
2019-04-02T07:04:47.165Z,11.20
2019-04-02T07:07:17.087Z,10.20
2019-04-02T07:09:46.913Z,10.03
2019-04-02T07:12:16.860Z,10.50
2019-04-02T07:14:46.638Z,10.67
2019-04-02T07:17:16.509Z,10.70
2019-04-02T07:19:46.361Z,10.67
2019-04-02T07:22:16.255Z,9.70
2019-04-02T07:24:46.039Z,11.43
2019-04-02T07:27:15.866Z,11.33
2019-04-02T07:29:46.380Z,10.73
2019-04-02T07:32:16.685Z,14.17
2019-04-02T07:34:46.483Z,11.57
2019-04-02T07:37:16.281Z,11.03
2019-04-02T07:39:47.163Z,11.60
2019-04-02T07:42:17.094Z,13.87
2019-04-02T07:44:46.975Z,11.00
2019-04-02T07:47:16.782Z,11.83
2019-04-02T07:49:47.287Z,11.50
2019-04-02T07:52:18.310Z,12.77
2019-04-02T07:54:48.141Z,10.70
2019-04-02T07:57:20.877Z,10.20
2019-04-02T07:59:49.518Z,11.77
2019-04-02T08:02:19.315Z,10.73
2019-04-02T08:04:49.144Z,11.07
2019-04-02T08:07:18.960Z,11.03
2019-04-02T08:09:48.714Z,10.17
2019-04-02T08:12:18.608Z,10.33
2019-04-02T08:14:48.473Z,10.60
2019-04-02T08:17:20.080Z,10.27
2019-04-02T08:19:49.771Z,12.57
2019-04-02T08:22:19.699Z,10.40
2019-04-02T08:24:49.664Z,10.20
2019-04-02T08:27:19.534Z,11.87
2019-04-02T08:29:49.363Z,9.87
2019-04-02T08:32:20.683Z,10.40
2019-04-02T08:34:51.804Z,10.73
2019-04-02T08:37:21.627Z,10.53
2019-04-02T08:39:51.713Z,10.23
2019-04-02T08:42:21.611Z,11.17
2019-04-02T08:44:51.489Z,9.70
2019-04-02T08:47:21.378Z,10.37
2019-04-02T08:49:51.135Z,10.17
2019-04-02T08:52:21.035Z,10.93
2019-04-02T08:54:50.935Z,10.60
2019-04-02T08:57:20.749Z,10.40
2019-04-02T08:59:56.257Z,11.27
2019-04-02T09:02:22.520Z,13.60
2019-04-02T09:04:52.243Z,12.27
2019-04-02T09:07:22.093Z,10.17
2019-04-02T09:09:51.908Z,10.97
2019-04-02T09:12:21.813Z,10.57
2019-04-02T09:14:51.583Z,10.93
2019-04-02T09:17:21.444Z,11.43
2019-04-02T09:19:51.239Z,10.33
2019-04-02T09:22:21.027Z,12.30
2019-04-02T09:24:52.706Z,10.57
2019-04-02T09:27:22.288Z,11.70
2019-04-02T09:29:52.046Z,10.37
2019-04-02T09:32:35.613Z,10.40
2019-04-02T09:34:54.816Z,11.50
2019-04-02T09:37:24.905Z,10.53
2019-04-02T09:39:54.728Z,11.13
2019-04-02T09:42:24.549Z,11.03
2019-04-02T09:44:54.442Z,10.67
2019-04-02T09:47:24.205Z,11.07
2019-04-02T09:49:54.031Z,10.40
2019-04-02T09:52:24.166Z,10.27
2019-04-02T09:54:53.967Z,11.10
2019-04-02T09:57:23.766Z,11.00
2019-04-02T09:59:53.585Z,10.20
2019-04-02T10:02:23.577Z,10.73
2019-04-02T10:04:53.401Z,12.10
2019-04-02T10:07:23.235Z,11.07
2019-04-02T10:09:53.539Z,10.60
2019-04-02T10:12:23.729Z,10.83
2019-04-02T10:14:53.537Z,10.63
2019-04-02T10:17:23.425Z,10.67
2019-04-02T10:19:53.423Z,11.77
2019-04-02T10:22:23.273Z,11.63
2019-04-02T10:24:53.269Z,11.07
2019-04-02T10:27:23.195Z,13.80
2019-04-02T10:29:53.048Z,9.97
2019-04-02T10:32:22.880Z,13.73
2019-04-02T10:34:52.696Z,10.57
2019-04-02T10:37:22.663Z,10.67
2019-04-02T10:39:52.506Z,11.37
2019-04-02T10:42:22.384Z,10.20
2019-04-02T10:44:52.207Z,10.50
2019-04-02T10:47:22.392Z,10.93
2019-04-02T10:49:52.244Z,11.07
2019-04-02T10:52:22.087Z,9.83
2019-04-02T10:54:51.888Z,13.27
2019-04-02T10:57:21.755Z,11.73
2019-04-02T10:59:51.496Z,10.97
2019-04-02T11:02:21.279Z,10.77
2019-04-02T11:05:01.491Z,10.83
2019-04-02T11:07:22.577Z,11.33
2019-04-02T11:09:52.368Z,11.07
2019-04-02T11:12:22.320Z,10.73
2019-04-02T11:14:52.086Z,12.77
2019-04-02T11:17:21.857Z,10.33
2019-04-02T11:19:51.776Z,10.60
2019-04-02T11:22:21.573Z,10.47
2019-04-02T11:24:51.400Z,11.53
2019-04-02T11:27:21.155Z,10.80
2019-04-02T11:29:50.932Z,13.20
2019-04-02T11:32:22.130Z,11.03
2019-04-02T11:34:52.332Z,11.83
2019-04-02T11:37:22.140Z,10.97
2019-04-02T11:39:52.081Z,11.10
2019-04-02T11:42:21.960Z,11.50
2019-04-02T11:44:51.817Z,11.40
2019-04-02T11:47:21.689Z,14.37
2019-04-02T11:49:51.595Z,11.50
2019-04-02T11:52:21.438Z,11.97
2019-04-02T11:54:51.241Z,13.00
2019-04-02T11:57:21.125Z,12.23
2019-04-02T11:59:51.086Z,11.27
2019-04-02T12:02:21.005Z,13.00
2019-04-02T12:04:50.932Z,12.47
2019-04-02T12:07:20.749Z,12.57
2019-04-02T12:09:50.625Z,14.03
2019-04-02T12:12:20.439Z,11.63
2019-04-02T12:14:50.179Z,11.93
2019-04-02T12:17:19.994Z,12.43
2019-04-02T12:19:49.900Z,12.40
2019-04-02T12:22:19.814Z,13.43
2019-04-02T12:24:51.517Z,13.83
2019-04-02T12:27:21.169Z,11.63
2019-04-02T12:29:50.928Z,13.67
2019-04-02T12:32:20.780Z,12.33
2019-04-02T12:34:50.607Z,11.40
2019-04-02T12:37:20.467Z,11.77
2019-04-02T12:39:50.335Z,12.07
2019-04-02T12:42:20.238Z,12.50
2019-04-02T12:44:50.297Z,12.40
2019-04-02T12:47:20.016Z,11.73
2019-04-02T12:49:49.888Z,12.17
2019-04-02T12:52:19.776Z,11.20
2019-04-02T12:54:49.645Z,11.60
2019-04-02T12:57:20.357Z,11.33
2019-04-02T12:59:51.084Z,11.10
2019-04-02T13:02:20.874Z,10.77
2019-04-02T13:04:50.799Z,13.40
2019-04-02T13:07:20.576Z,11.00
2019-04-02T13:09:50.456Z,11.37
2019-04-02T13:12:20.345Z,11.20
2019-04-02T13:14:50.170Z,11.80
2019-04-02T13:17:20.012Z,12.43
2019-04-02T13:19:49.856Z,12.40
2019-04-02T13:22:19.664Z,13.10
2019-04-02T13:24:49.423Z,11.53
2019-04-02T13:27:19.331Z,11.33
2019-04-02T13:29:49.094Z,11.60
2019-04-02T13:32:18.990Z,11.23
2019-04-02T13:35:08.428Z,13.20
2019-04-02T13:37:38.247Z,11.53
2019-04-02T13:40:10.664Z,11.93
2019-04-02T13:42:40.068Z,13.10
2019-04-02T13:45:10.632Z,12.07
2019-04-02T13:47:40.539Z,13.20
2019-04-02T13:50:11.485Z,12.70
2019-04-02T13:52:41.298Z,14.03
2019-04-02T13:55:11.396Z,12.60
2019-04-02T13:57:41.156Z,13.00
2019-04-02T14:00:14.094Z,13.60
2019-04-02T14:02:43.984Z,15.73
2019-04-02T14:05:14.790Z,13.73
2019-04-02T14:07:44.842Z,15.17
2019-04-02T14:10:15.029Z,13.10
2019-04-02T14:12:44.836Z,14.07
2019-04-02T14:15:14.867Z,13.27
2019-04-02T14:17:44.750Z,13.13
2019-04-02T14:20:15.248Z,11.83
2019-04-02T14:22:46.425Z,13.03
2019-04-02T14:25:16.949Z,13.63
2019-04-02T14:27:47.966Z,10.97
2019-04-02T14:30:18.311Z,12.60
2019-04-02T14:32:48.104Z,11.53
2019-04-02T14:35:18.110Z,13.43
2019-04-02T14:37:47.968Z,10.50
2019-04-02T14:40:18.000Z,9.10
2019-04-02T14:42:47.736Z,9.60
2019-04-02T14:45:17.740Z,10.57
2019-04-02T14:47:47.548Z,10.97
2019-04-02T14:50:17.615Z,11.33
2019-04-02T14:52:47.444Z,11.47
2019-04-02T14:55:18.129Z,13.57
2019-04-02T14:57:48.546Z,11.33
2019-04-02T15:00:19.504Z,11.90
2019-04-02T15:02:51.810Z,12.13
2019-04-02T15:05:21.401Z,11.17
2019-04-02T15:07:51.350Z,12.30
2019-04-02T15:10:21.226Z,13.13
2019-04-02T15:12:51.058Z,13.23
2019-04-02T15:15:21.561Z,13.83
2019-04-02T15:17:52.353Z,15.30
2019-04-02T15:20:22.165Z,13.03
2019-04-02T15:22:52.020Z,13.50
2019-04-02T15:25:21.881Z,12.90
2019-04-02T15:27:51.653Z,12.63
2019-04-02T15:30:21.559Z,13.20
2019-04-02T15:32:51.419Z,12.43
2019-04-02T15:35:21.383Z,13.10
2019-04-02T15:37:51.335Z,12.27
2019-04-02T15:40:21.158Z,13.13
2019-04-02T15:42:51.027Z,12.87
2019-04-02T15:45:21.006Z,13.67
2019-04-02T15:47:50.828Z,11.83
2019-04-02T15:50:20.700Z,13.03
2019-04-02T15:52:50.497Z,12.63
2019-04-02T15:55:20.282Z,14.47
2019-04-02T15:57:50.124Z,12.50
2019-04-02T16:00:26.514Z,14.47
2019-04-02T16:02:52.548Z,12.97
2019-04-02T16:05:22.517Z,13.33
2019-04-02T16:07:52.296Z,12.40
2019-04-02T16:10:22.261Z,13.47
2019-04-02T16:12:52.151Z,13.47
2019-04-02T16:15:22.124Z,13.03
2019-04-02T16:17:54.486Z,13.03
2019-04-02T16:20:23.444Z,12.77
2019-04-02T16:22:53.398Z,12.40
2019-04-02T16:25:23.353Z,12.23
2019-04-02T16:27:53.564Z,12.33
2019-04-02T16:30:23.439Z,13.00
2019-04-02T16:32:53.419Z,12.37
2019-04-02T16:35:23.237Z,11.60
2019-04-02T16:37:53.234Z,12.20
2019-04-02T16:40:23.363Z,12.27
2019-04-02T16:42:53.579Z,13.23
2019-04-02T16:45:23.919Z,13.07
2019-04-02T16:47:54.231Z,13.03
2019-04-02T16:50:24.278Z,16.13
2019-04-02T16:52:54.127Z,13.03
2019-04-02T16:55:29.384Z,12.17
2019-04-02T16:57:58.900Z,14.40
2019-04-02T17:00:28.709Z,12.60
2019-04-02T17:02:58.521Z,11.00
2019-04-02T17:05:28.387Z,11.73
2019-04-02T17:07:58.174Z,11.23
2019-04-02T17:10:28.071Z,11.23
2019-04-02T17:12:57.876Z,10.67
2019-04-02T17:15:27.757Z,14.17
2019-04-02T17:17:57.528Z,11.20
2019-04-02T17:20:27.412Z,11.73
2019-04-02T17:22:59.065Z,10.83
2019-04-02T17:25:29.040Z,11.33
2019-04-02T17:27:59.204Z,12.57
2019-04-02T17:30:29.028Z,14.00
2019-04-02T17:32:58.877Z,15.00
2019-04-02T17:35:28.742Z,13.07
2019-04-02T17:37:58.532Z,13.20
2019-04-02T17:40:28.412Z,12.67
2019-04-02T17:42:58.583Z,12.83
2019-04-02T17:45:28.386Z,13.37
2019-04-02T17:47:58.221Z,13.13
2019-04-02T17:50:28.044Z,13.07
2019-04-02T17:52:57.948Z,13.60
2019-04-02T17:55:27.754Z,14.20
2019-04-02T17:57:57.635Z,13.13
2019-04-02T18:00:27.523Z,12.70
2019-04-02T18:02:57.352Z,14.60
2019-04-02T18:05:27.264Z,14.27
2019-04-02T18:07:57.163Z,14.87
2019-04-02T18:10:27.016Z,16.13
2019-04-02T18:12:56.951Z,17.17
2019-04-02T18:15:26.777Z,17.67
2019-04-02T18:17:56.618Z,16.07
2019-04-02T18:20:26.552Z,17.63
2019-04-02T18:22:56.554Z,17.13
2019-04-02T18:25:26.466Z,17.13
2019-04-02T18:27:56.476Z,18.37
2019-04-02T18:30:26.312Z,18.17
2019-04-02T18:32:56.146Z,18.30
2019-04-02T18:35:26.000Z,17.77
2019-04-02T18:37:56.027Z,17.07
2019-04-02T18:40:25.879Z,18.20
2019-04-02T18:42:55.697Z,18.80
2019-04-02T18:45:25.715Z,18.20
2019-04-02T18:47:55.497Z,18.53
2019-04-02T18:50:25.382Z,18.60
2019-04-02T18:52:55.256Z,17.40
2019-04-02T18:55:25.096Z,18.57
2019-04-02T18:57:56.681Z,17.57
2019-04-02T19:00:28.127Z,18.47
2019-04-02T19:02:59.762Z,18.00
2019-04-02T19:05:29.971Z,18.03
2019-04-02T19:08:00.494Z,17.90
2019-04-02T19:10:30.444Z,19.67
2019-04-02T19:13:00.381Z,19.50
2019-04-02T19:15:30.312Z,19.43
2019-04-02T19:18:00.215Z,19.37
2019-04-02T19:20:30.098Z,18.90
2019-04-02T19:23:01.801Z,18.87
2019-04-02T19:25:34.973Z,18.50
2019-04-02T19:28:02.929Z,19.20
2019-04-02T19:30:32.771Z,19.13
2019-04-02T19:33:02.619Z,17.80
2019-04-02T19:35:34.662Z,17.97
2019-04-02T19:38:04.005Z,17.30
2019-04-02T19:40:33.880Z,18.13
2019-04-02T19:43:08.096Z,17.13
2019-04-02T19:45:35.961Z,17.20
2019-04-02T19:48:05.888Z,16.97
2019-04-02T19:50:35.799Z,17.53
2019-04-02T19:53:05.812Z,18.70
2019-04-02T19:55:35.612Z,19.30
2019-04-02T19:58:05.657Z,18.93
2019-04-02T20:00:35.577Z,19.80
2019-04-02T20:03:05.591Z,19.93
2019-04-02T20:05:35.418Z,20.60
2019-04-02T20:08:06.628Z,20.57
2019-04-02T20:10:36.928Z,20.90
2019-04-02T20:13:06.737Z,21.07
2019-04-02T20:15:36.717Z,20.60
2019-04-02T20:18:06.633Z,22.33
2019-04-02T20:20:36.543Z,21.67
2019-04-02T20:23:06.313Z,21.20
2019-04-02T20:25:36.163Z,22.43
2019-04-02T20:28:05.957Z,22.33
2019-04-02T20:30:35.839Z,22.60
2019-04-02T20:33:05.649Z,23.10
2019-04-02T20:35:35.490Z,24.03
2019-04-02T20:38:05.442Z,25.83
2019-04-02T20:40:35.338Z,25.33
2019-04-02T20:43:05.128Z,24.33
2019-04-02T20:45:35.040Z,24.43
2019-04-02T20:48:04.975Z,25.07
2019-04-02T20:50:34.725Z,24.90
2019-04-02T20:53:15.703Z,24.80
2019-04-02T20:55:36.124Z,25.33
2019-04-02T20:58:06.036Z,25.07
2019-04-02T21:00:35.900Z,24.43
2019-04-02T21:03:05.791Z,26.07
2019-04-02T21:05:35.838Z,25.20
2019-04-02T21:08:05.870Z,23.30
2019-04-02T21:10:35.712Z,23.90
2019-04-02T21:13:14.559Z,23.20
2019-04-02T21:15:37.524Z,23.47
2019-04-02T21:18:07.464Z,21.93
2019-04-02T21:20:37.219Z,21.00
2019-04-02T21:23:07.116Z,20.60
2019-04-02T21:25:37.020Z,20.07
2019-04-02T21:28:06.827Z,19.67
2019-04-02T21:30:36.692Z,19.97
2019-04-02T21:33:06.529Z,20.23
2019-04-02T21:35:43.841Z,19.90
2019-04-02T21:38:07.849Z,19.37
2019-04-02T21:40:37.696Z,20.13
2019-04-02T21:43:07.547Z,19.33
2019-04-02T21:45:37.311Z,18.97
2019-04-02T21:48:07.675Z,18.50
2019-04-02T21:50:37.626Z,18.20
2019-04-02T21:53:09.766Z,18.87
2019-04-02T21:55:38.936Z,19.67
2019-04-02T21:58:08.735Z,19.23
2019-04-02T22:00:47.039Z,19.00
2019-04-02T22:03:17.150Z,18.20
2019-04-02T22:05:46.985Z,20.40
2019-04-02T22:08:16.776Z,19.60
2019-04-02T22:10:46.648Z,19.20
2019-04-02T22:13:16.418Z,20.07
2019-04-02T22:15:46.313Z,21.50
2019-04-02T22:18:16.135Z,20.93
2019-04-02T22:20:45.951Z,20.77
2019-04-02T22:23:15.688Z,21.67
2019-04-02T22:25:45.505Z,22.50
2019-04-02T22:28:15.940Z,21.90
2019-04-02T22:30:47.422Z,22.00
2019-04-02T22:33:18.473Z,21.13
2019-04-02T22:35:48.582Z,21.40
2019-04-02T22:38:18.363Z,20.70
2019-04-02T22:40:48.072Z,22.00
2019-04-02T22:43:17.904Z,21.30
2019-04-02T22:45:48.155Z,20.50
2019-04-02T22:48:18.254Z,21.00
2019-04-02T22:50:48.291Z,20.93
2019-04-02T22:53:18.083Z,21.90
2019-04-02T22:55:47.853Z,21.13
2019-04-02T22:58:17.647Z,21.10
2019-04-02T23:00:47.427Z,20.03
2019-04-02T23:03:17.179Z,21.73
2019-04-02T23:05:46.913Z,21.27
2019-04-02T23:08:16.649Z,21.13
2019-04-02T23:10:46.443Z,21.00
2019-04-02T23:13:16.233Z,22.67
2019-04-02T23:15:45.991Z,20.67
2019-04-02T23:18:25.686Z,20.93
2019-04-02T23:20:47.263Z,20.30
2019-04-02T23:23:17.293Z,20.90
2019-04-02T23:25:47.934Z,21.03
2019-04-02T23:28:19.584Z,21.60
2019-04-02T23:30:49.315Z,20.87
2019-04-02T23:33:19.090Z,20.83
2019-04-02T23:35:48.906Z,20.77
2019-04-02T23:38:18.745Z,19.37
2019-04-02T23:40:48.599Z,21.27
2019-04-02T23:43:18.430Z,19.63
2019-04-02T23:45:48.228Z,21.70
2019-04-02T23:48:17.962Z,21.27
2019-04-02T23:50:47.720Z,21.00
2019-04-02T23:53:17.507Z,21.67
2019-04-02T23:55:47.330Z,21.33
2019-04-02T23:58:17.092Z,21.23
